Terminal Aerodrome Forecast
Issued by NWS

Home | Current Version | Previous Version | Text Only | Print | Product List | Glossary On
Versions: 1 2 3 4 5 6 7 8 9 10 11 12 13 14 15 16 17 18 19 20 21 22 23 24 25
142
FTUS44 KFWD 140259 AAA
TAFAFW
TAF AMD
KAFW 140259Z 1403/1424 14013KT P6SM SCT040 BKN250
     FM140700 17017KT P6SM BKN015
     FM141500 19016KT P6SM BKN025
     FM142100 18013KT P6SM SCT025 BKN045=

USA.gov is the U.S. government's official web portal to all federal, state and local government web resources and services.